Time;durP1;ratioP1;P1;durP2;ratioP2;P2;SDS_P1;SDS_P2;PMS_P1;PMS_P2;Temp;Humidity;BMP_temperature;BMP_pressure;BME280_temperature;BME280_humidity;BME280_pressure;Samples;Min_cycle;Max_cycle;Signal;HPM_P1;HPM_P2
2023/02/10 00:02:09;;;;;;;30.38;14.70;;;;;;;;;;4989502;28;20023;-84
2023/02/10 00:04:34;;;;;;;30.05;16.67;;;;;;;;;;4991660;28;20026;-83
2023/02/10 00:06:59;;;;;;;28.73;15.75;;;;;;;;;;4989216;28;20026;-83
2023/02/10 00:09:25;;;;;;;39.43;19.03;;;;;;;;;;4989433;28;20045;-83
2023/02/10 00:11:56;;;;;;;32.22;15.07;;;;;;;;;;4986717;28;20281;-86
2023/02/10 00:14:21;;;;;;;33.78;17.38;;;;;;;;;;4987585;28;20033;-71
2023/02/10 00:16:48;;;;;;;33.83;16.13;;;;;;;;;;4989284;28;20022;-72
2023/02/10 00:19:14;;;;;;;32.97;15.98;;;;;;;;;;4988269;28;20034;-71
2023/02/10 00:21:39;;;;;;;32.30;15.97;;;;;;;;;;4994480;28;20026;-71
2023/02/10 00:24:04;;;;;;;30.97;17.47;;;;;;;;;;4990054;28;20278;-72
2023/02/10 00:26:29;;;;;;;31.63;16.23;;;;;;;;;;4988547;28;20269;-72
2023/02/10 00:28:55;;;;;;;31.00;16.45;;;;;;;;;;4985715;28;20096;-71
2023/02/10 00:31:21;;;;;;;27.03;15.20;;;;;;;;;;4989099;28;20023;-71
2023/02/10 00:33:46;;;;;;;32.90;17.17;;;;;;;;;;4987708;28;20293;-68
2023/02/10 00:36:13;;;;;;;29.35;16.60;;;;;;;;;;4987873;28;20311;-72
2023/02/10 00:38:39;;;;;;;37.38;17.38;;;;;;;;;;4988129;28;20026;-70
2023/02/10 00:41:05;;;;;;;32.45;17.83;;;;;;;;;;4986372;28;20018;-70
2023/02/10 00:43:31;;;;;;;39.95;19.13;;;;;;;;;;4987407;28;20018;-71
2023/02/10 00:45:56;;;;;;;32.08;16.33;;;;;;;;;;4987568;28;20512;-70
2023/02/10 00:48:21;;;;;;;32.47;15.20;;;;;;;;;;4986590;28;20022;-72
2023/02/10 00:50:46;;;;;;;31.83;16.83;;;;;;;;;;4988054;28;20274;-70
2023/02/10 00:53:12;;;;;;;34.40;17.60;;;;;;;;;;4993465;28;20282;-74
2023/02/10 00:55:37;;;;;;;33.07;16.43;;;;;;;;;;4995476;28;20274;-72
2023/02/10 00:58:02;;;;;;;32.28;16.73;;;;;;;;;;4991067;28;20718;-71
2023/02/10 01:00:27;;;;;;;31.13;15.75;;;;;;;;;;4990605;28;20039;-72
2023/02/10 01:02:52;;;;;;;32.88;16.08;;;;;;;;;;4991129;28;20021;-71
2023/02/10 01:05:18;;;;;;;35.10;16.45;;;;;;;;;;4991111;28;20030;-71
2023/02/10 01:07:43;;;;;;;35.00;16.48;;;;;;;;;;4990318;28;20026;-71
2023/02/10 01:10:08;;;;;;;31.65;16.45;;;;;;;;;;4991526;28;20026;-72
2023/02/10 01:12:33;;;;;;;36.07;17.57;;;;;;;;;;4990636;28;20548;-73
2023/02/10 01:14:59;;;;;;;34.97;18.90;;;;;;;;;;4992289;28;20269;-72
2023/02/10 01:17:24;;;;;;;30.35;15.65;;;;;;;;;;4990939;28;20305;-73
2023/02/10 01:19:51;;;;;;;33.10;17.63;;;;;;;;;;4990301;28;20500;-72
2023/02/10 01:22:16;;;;;;;34.05;17.73;;;;;;;;;;4991525;28;20022;-73
2023/02/10 01:24:41;;;;;;;34.28;16.30;;;;;;;;;;4992689;28;20029;-73
2023/02/10 01:27:06;;;;;;;32.67;16.20;;;;;;;;;;4996432;28;20056;-75
2023/02/10 01:29:31;;;;;;;35.93;19.60;;;;;;;;;;4991727;28;20349;-72
2023/02/10 01:31:57;;;;;;;30.80;15.03;;;;;;;;;;4989807;28;20293;-72
2023/02/10 01:34:22;;;;;;;31.97;16.80;;;;;;;;;;4990676;28;20285;-73
2023/02/10 01:36:47;;;;;;;37.83;19.13;;;;;;;;;;4991789;28;20308;-71
2023/02/10 01:39:12;;;;;;;35.35;18.63;;;;;;;;;;4991447;28;20477;-72
2023/02/10 01:41:38;;;;;;;31.15;17.90;;;;;;;;;;4990040;28;20026;-71
2023/02/10 01:44:18;;;;;;;32.88;16.90;;;;;;;;;;4991653;28;20615;-72
2023/02/10 01:46:46;;;;;;;33.63;16.42;;;;;;;;;;4991625;28;20027;-72
2023/02/10 01:49:14;;;;;;;29.35;17.05;;;;;;;;;;4988392;28;20022;-76
2023/02/10 01:51:45;;;;;;;31.83;16.40;;;;;;;;;;4989673;28;20025;-75
2023/02/10 01:54:13;;;;;;;35.25;17.63;;;;;;;;;;4987317;28;20022;-75
2023/02/10 01:56:39;;;;;;;33.10;16.23;;;;;;;;;;4993648;28;20101;-75
2023/02/10 01:59:05;;;;;;;37.65;16.33;;;;;;;;;;4992984;28;20050;-76
2023/02/10 02:01:30;;;;;;;31.88;16.38;;;;;;;;;;4986792;28;20436;-75
2023/02/10 02:03:56;;;;;;;31.33;17.90;;;;;;;;;;4987665;28;20026;-73
2023/02/10 02:06:22;;;;;;;35.15;18.38;;;;;;;;;;5005330;28;20130;-71
2023/02/10 02:08:48;;;;;;;32.40;16.58;;;;;;;;;;4988790;28;20046;-72
2023/02/10 02:11:19;;;;;;;32.05;15.95;;;;;;;;;;4987956;28;20520;-73
2023/02/10 02:14:02;;;;;;;41.58;19.17;;;;;;;;;;4988829;28;20027;-72
2023/02/10 02:16:46;;;;;;;33.88;18.63;;;;;;;;;;4988665;28;20030;-70
2023/02/10 02:19:30;;;;;;;30.40;15.57;;;;;;;;;;4988062;28;20030;-73
2023/02/10 02:22:14;;;;;;;32.47;15.68;;;;;;;;;;4988621;28;20023;-75
2023/02/10 02:24:58;;;;;;;32.13;16.00;;;;;;;;;;4991145;28;20084;-72
2023/02/10 02:33:28;;;;;;;34.90;17.25;;;;;;;;;;4991035;28;20034;-70
2023/02/10 02:36:01;;;;;;;31.77;16.33;;;;;;;;;;4989199;28;20102;-72
2023/02/10 02:38:26;;;;;;;31.27;16.17;;;;;;;;;;4990406;28;20391;-72
2023/02/10 02:40:52;;;;;;;35.67;18.60;;;;;;;;;;4990696;28;20493;-69
2023/02/10 02:43:17;;;;;;;30.02;15.70;;;;;;;;;;4990472;28;20030;-67
2023/02/10 02:45:51;;;;;;;34.15;17.50;;;;;;;;;;4988768;28;20054;-72
2023/02/10 02:48:35;;;;;;;30.95;16.08;;;;;;;;;;4997056;28;20018;-68
2023/02/10 02:51:05;;;;;;;34.25;16.73;;;;;;;;;;4984693;28;20038;-70
2023/02/10 02:53:46;;;;;;;33.30;15.73;;;;;;;;;;4989486;28;20030;-68
2023/02/10 02:56:34;;;;;;;36.85;17.45;;;;;;;;;;4988081;28;20022;-69
2023/02/10 02:58:59;;;;;;;30.60;16.65;;;;;;;;;;4981424;28;20047;-70
2023/02/10 03:01:31;;;;;;;32.30;15.70;;;;;;;;;;4995479;28;20060;-71
2023/02/10 03:03:57;;;;;;;31.50;16.63;;;;;;;;;;4992424;28;20018;-72
2023/02/10 03:06:22;;;;;;;31.48;16.42;;;;;;;;;;4989191;28;20053;-71
2023/02/10 03:08:48;;;;;;;28.23;15.57;;;;;;;;;;4987595;28;20068;-69
2023/02/10 03:11:13;;;;;;;32.05;16.77;;;;;;;;;;4987852;28;20297;-72
2023/02/10 03:13:38;;;;;;;28.50;15.85;;;;;;;;;;4990607;28;20465;-70
2023/02/10 03:16:04;;;;;;;34.50;18.27;;;;;;;;;;4986558;28;20049;-72
2023/02/10 03:18:29;;;;;;;32.40;16.70;;;;;;;;;;4990247;28;20790;-73
2023/02/10 03:20:54;;;;;;;27.67;15.50;;;;;;;;;;4988802;28;20042;-69
2023/02/10 03:23:20;;;;;;;32.30;16.45;;;;;;;;;;4988596;28;20084;-67
2023/02/10 03:25:45;;;;;;;34.28;17.42;;;;;;;;;;4985120;28;20019;-67
2023/02/10 03:28:11;;;;;;;34.80;18.02;;;;;;;;;;4987748;28;20051;-69
2023/02/10 03:30:36;;;;;;;31.20;17.50;;;;;;;;;;4990249;28;20026;-67
2023/02/10 03:33:01;;;;;;;37.05;18.05;;;;;;;;;;4989959;28;20085;-66
2023/02/10 03:35:27;;;;;;;33.17;16.92;;;;;;;;;;4999297;28;20871;-71
2023/02/10 03:37:52;;;;;;;33.40;17.15;;;;;;;;;;4994686;28;20030;-75
2023/02/10 03:40:17;;;;;;;36.75;16.13;;;;;;;;;;4995977;28;20806;-72
2023/02/10 03:42:42;;;;;;;33.58;18.15;;;;;;;;;;4990569;28;20014;-73
2023/02/10 03:45:08;;;;;;;29.58;16.17;;;;;;;;;;4998848;28;20029;-71
2023/02/10 03:47:33;;;;;;;32.05;16.52;;;;;;;;;;4989541;28;20023;-71
2023/02/10 03:49:58;;;;;;;34.40;16.17;;;;;;;;;;4988565;28;20393;-70
2023/02/10 03:52:24;;;;;;;38.00;18.13;;;;;;;;;;4990819;28;20030;-71
2023/02/10 03:54:49;;;;;;;33.40;17.37;;;;;;;;;;4991267;28;20034;-81
2023/02/10 03:57:14;;;;;;;32.17;16.25;;;;;;;;;;4989619;28;20590;-74
2023/02/10 03:59:39;;;;;;;37.70;18.65;;;;;;;;;;4985362;28;20038;-74
2023/02/10 04:02:05;;;;;;;32.63;18.25;;;;;;;;;;4989270;28;20033;-74
2023/02/10 04:04:30;;;;;;;30.70;16.40;;;;;;;;;;4988932;28;20022;-74
2023/02/10 04:06:55;;;;;;;34.35;17.50;;;;;;;;;;4995698;28;20433;-75
2023/02/10 04:09:20;;;;;;;32.35;18.23;;;;;;;;;;4989826;28;20131;-75
2023/02/10 04:11:46;;;;;;;30.77;16.50;;;;;;;;;;4991051;28;20096;-72
2023/02/10 04:14:11;;;;;;;33.13;16.90;;;;;;;;;;4986570;28;20285;-74
2023/02/10 04:16:36;;;;;;;34.27;18.40;;;;;;;;;;4987330;28;20270;-80
2023/02/10 04:19:02;;;;;;;33.75;16.33;;;;;;;;;;4987910;28;20297;-81
2023/02/10 04:21:27;;;;;;;31.67;15.73;;;;;;;;;;4985881;28;20038;-82
2023/02/10 04:23:52;;;;;;;33.30;18.50;;;;;;;;;;4987114;28;20413;-81
2023/02/10 04:26:17;;;;;;;33.97;16.50;;;;;;;;;;4988810;28;20075;-82
2023/02/10 04:28:42;;;;;;;33.27;16.00;;;;;;;;;;4992511;28;20026;-82
2023/02/10 04:31:09;;;;;;;37.53;18.20;;;;;;;;;;4992330;28;20625;-71
2023/02/10 04:33:35;;;;;;;37.50;17.95;;;;;;;;;;4990877;28;20033;-70
2023/02/10 04:36:02;;;;;;;38.25;19.75;;;;;;;;;;4988728;28;20014;-71
2023/02/10 04:38:27;;;;;;;31.33;17.42;;;;;;;;;;5001155;28;20113;-72
2023/02/10 04:40:53;;;;;;;32.58;17.85;;;;;;;;;;4992798;28;20550;-70
2023/02/10 04:43:18;;;;;;;36.80;18.97;;;;;;;;;;4991363;28;20493;-71
2023/02/10 04:45:43;;;;;;;38.97;19.00;;;;;;;;;;4991037;28;20360;-70
2023/02/10 04:48:08;;;;;;;33.10;17.20;;;;;;;;;;4990885;28;20014;-69
2023/02/10 04:50:36;;;;;;;35.25;18.25;;;;;;;;;;4984085;28;20282;-70
2023/02/10 04:53:01;;;;;;;40.40;18.55;;;;;;;;;;4990980;28;20034;-72
2023/02/10 04:55:26;;;;;;;30.25;16.73;;;;;;;;;;4984030;28;20069;-73
2023/02/10 04:57:51;;;;;;;33.97;18.30;;;;;;;;;;4991198;28;20030;-72
2023/02/10 05:00:17;;;;;;;51.37;19.63;;;;;;;;;;4991573;28;20066;-72
2023/02/10 05:02:42;;;;;;;33.67;16.52;;;;;;;;;;4992177;28;20281;-74
2023/02/10 05:05:09;;;;;;;36.67;17.60;;;;;;;;;;4991418;28;20057;-73
2023/02/10 05:07:34;;;;;;;41.03;17.92;;;;;;;;;;4991098;28;20353;-70
2023/02/10 05:10:00;;;;;;;31.80;17.33;;;;;;;;;;4998772;28;20057;-74
2023/02/10 05:12:25;;;;;;;35.00;18.27;;;;;;;;;;4990480;28;20390;-72
2023/02/10 05:14:50;;;;;;;32.15;16.70;;;;;;;;;;4992318;28;20740;-72
2023/02/10 05:17:16;;;;;;;31.05;17.85;;;;;;;;;;4992362;28;20022;-72
2023/02/10 05:19:41;;;;;;;31.83;17.10;;;;;;;;;;4989809;28;20038;-72
2023/02/10 05:22:06;;;;;;;36.87;17.63;;;;;;;;;;4992020;28;20093;-72
2023/02/10 05:24:31;;;;;;;33.85;17.60;;;;;;;;;;4991350;28;20340;-71
2023/02/10 05:26:57;;;;;;;33.85;18.10;;;;;;;;;;4992382;28;20039;-69
2023/02/10 05:29:22;;;;;;;32.80;17.55;;;;;;;;;;4990857;28;20034;-72
2023/02/10 05:31:47;;;;;;;36.17;17.02;;;;;;;;;;4991429;28;20014;-71
2023/02/10 05:34:12;;;;;;;33.25;18.88;;;;;;;;;;4991251;28;20153;-71
2023/02/10 05:36:38;;;;;;;36.25;17.23;;;;;;;;;;4990542;28;20018;-72
2023/02/10 05:41:47;;;;;;;34.42;17.60;;;;;;;;;;4994680;28;20014;-72
2023/02/10 05:44:12;;;;;;;30.80;16.80;;;;;;;;;;4999696;28;20049;-73
2023/02/10 05:46:37;;;;;;;35.45;17.48;;;;;;;;;;4999139;28;20364;-70
2023/02/10 05:49:02;;;;;;;41.13;18.50;;;;;;;;;;4991111;28;20129;-74
2023/02/10 05:51:28;;;;;;;39.58;18.83;;;;;;;;;;4989088;28;20297;-74
2023/02/10 05:53:53;;;;;;;35.35;16.95;;;;;;;;;;4988732;28;20097;-75
2023/02/10 05:56:19;;;;;;;37.85;16.60;;;;;;;;;;4991465;28;20108;-74
2023/02/10 05:58:44;;;;;;;39.65;18.23;;;;;;;;;;4989529;28;20022;-76
2023/02/10 06:01:09;;;;;;;35.05;17.75;;;;;;;;;;4988772;28;20591;-74
2023/02/10 06:03:35;;;;;;;38.40;18.70;;;;;;;;;;4991625;28;20030;-68
2023/02/10 06:06:00;;;;;;;34.63;16.20;;;;;;;;;;4990905;28;20022;-75
2023/02/10 06:08:26;;;;;;;32.47;17.42;;;;;;;;;;4990933;28;20019;-76
2023/02/10 06:10:51;;;;;;;31.17;16.65;;;;;;;;;;4988982;28;20085;-75
2023/02/10 06:13:16;;;;;;;35.83;18.05;;;;;;;;;;4995275;28;20364;-77
2023/02/10 06:15:41;;;;;;;33.30;17.38;;;;;;;;;;4993355;28;20065;-75
2023/02/10 06:18:07;;;;;;;31.65;16.27;;;;;;;;;;4990793;28;20081;-75
2023/02/10 06:20:32;;;;;;;34.60;18.08;;;;;;;;;;4993142;28;20496;-73
2023/02/10 06:22:57;;;;;;;32.78;17.52;;;;;;;;;;4990696;28;20476;-82
2023/02/10 06:25:22;;;;;;;34.00;16.40;;;;;;;;;;4990492;28;20085;-74
2023/02/10 06:27:48;;;;;;;30.13;16.85;;;;;;;;;;4987868;28;20117;-74
2023/02/10 06:30:13;;;;;;;29.43;15.43;;;;;;;;;;4989006;28;20073;-78
2023/02/10 06:32:38;;;;;;;37.72;16.60;;;;;;;;;;4986163;28;20301;-77
2023/02/10 06:35:03;;;;;;;30.93;16.47;;;;;;;;;;4988755;28;20034;-77
2023/02/10 06:37:29;;;;;;;30.27;15.68;;;;;;;;;;4989753;28;20392;-76
2023/02/10 06:39:54;;;;;;;35.00;17.05;;;;;;;;;;4987748;28;20202;-70
2023/02/10 06:42:19;;;;;;;32.53;15.52;;;;;;;;;;4987279;28;20114;-71
2023/02/10 06:44:44;;;;;;;28.65;15.55;;;;;;;;;;4988935;28;20341;-75
2023/02/10 06:47:10;;;;;;;31.48;16.30;;;;;;;;;;4988501;28;20045;-74
2023/02/10 06:49:35;;;;;;;29.80;16.53;;;;;;;;;;4977494;28;20022;-72
2023/02/10 06:52:00;;;;;;;36.20;16.38;;;;;;;;;;4978869;28;20266;-73
2023/02/10 06:54:26;;;;;;;34.15;16.95;;;;;;;;;;4981268;28;20029;-73
2023/02/10 06:56:51;;;;;;;33.20;17.20;;;;;;;;;;4978446;28;20030;-76
2023/02/10 06:59:16;;;;;;;31.80;18.17;;;;;;;;;;4986615;28;20165;-70
2023/02/10 07:01:42;;;;;;;32.97;17.88;;;;;;;;;;4989899;28;20030;-80
2023/02/10 07:04:07;;;;;;;32.00;16.35;;;;;;;;;;4989812;28;20113;-78
2023/02/10 07:06:32;;;;;;;34.13;17.08;;;;;;;;;;4987279;28;20080;-79
2023/02/10 07:08:57;;;;;;;31.60;17.73;;;;;;;;;;4980380;28;20042;-79
2023/02/10 07:11:23;;;;;;;34.03;17.73;;;;;;;;;;4985306;28;20030;-82
2023/02/10 07:13:48;;;;;;;34.00;15.90;;;;;;;;;;4989285;28;20041;-79
2023/02/10 07:16:15;;;;;;;34.58;17.25;;;;;;;;;;4988953;28;20038;-76
2023/02/10 07:18:41;;;;;;;31.63;16.95;;;;;;;;;;4994831;28;20022;-70
2023/02/10 07:21:06;;;;;;;30.67;16.23;;;;;;;;;;4986265;28;20090;-73
2023/02/10 07:23:31;;;;;;;34.97;17.10;;;;;;;;;;4984893;28;20527;-72
2023/02/10 07:25:56;;;;;;;31.87;17.67;;;;;;;;;;4986765;28;20401;-72
2023/02/10 07:28:22;;;;;;;29.00;15.90;;;;;;;;;;4988750;28;20764;-71
2023/02/10 07:30:47;;;;;;;33.15;17.60;;;;;;;;;;4987950;28;20793;-71
2023/02/10 07:33:12;;;;;;;33.60;17.10;;;;;;;;;;4981900;28;20820;-73
2023/02/10 07:35:37;;;;;;;33.13;17.10;;;;;;;;;;4985984;28;20206;-72
2023/02/10 07:38:03;;;;;;;32.15;17.48;;;;;;;;;;4986391;28;20022;-74
2023/02/10 07:40:29;;;;;;;36.33;17.90;;;;;;;;;;4981887;28;20507;-75
2023/02/10 07:42:55;;;;;;;41.60;19.00;;;;;;;;;;4987589;28;20277;-74
2023/02/10 07:45:20;;;;;;;32.20;16.58;;;;;;;;;;4988939;28;20034;-71
2023/02/10 07:47:45;;;;;;;32.00;16.70;;;;;;;;;;4986718;28;20097;-71
2023/02/10 07:50:10;;;;;;;32.77;17.60;;;;;;;;;;4993969;28;20038;-76
2023/02/10 07:52:36;;;;;;;31.23;17.17;;;;;;;;;;4986018;28;20266;-71
2023/02/10 07:55:02;;;;;;;33.83;18.00;;;;;;;;;;4987203;28;20280;-73
2023/02/10 07:57:28;;;;;;;32.97;17.77;;;;;;;;;;4989093;28;20022;-82
2023/02/10 07:59:53;;;;;;;31.65;18.35;;;;;;;;;;4991398;28;20034;-79
2023/02/10 08:02:18;;;;;;;31.20;17.93;;;;;;;;;;4988640;28;20027;-75
2023/02/10 08:04:43;;;;;;;34.93;17.27;;;;;;;;;;4987013;28;20281;-76
2023/02/10 08:07:10;;;;;;;32.80;17.05;;;;;;;;;;4987320;28;20257;-78
2023/02/10 08:09:35;;;;;;;32.67;17.70;;;;;;;;;;4986799;28;20121;-79
2023/02/10 08:12:01;;;;;;;34.40;19.52;;;;;;;;;;4987136;28;20110;-76
2023/02/10 08:14:26;;;;;;;34.08;18.58;;;;;;;;;;4983918;28;20050;-72
2023/02/10 08:16:51;;;;;;;38.03;19.95;;;;;;;;;;4984815;28;20640;-71
2023/02/10 08:19:16;;;;;;;38.13;17.90;;;;;;;;;;4984908;28;20070;-71
2023/02/10 08:21:42;;;;;;;34.67;16.83;;;;;;;;;;4994369;28;20041;-70
2023/02/10 08:24:07;;;;;;;35.22;19.65;;;;;;;;;;4986372;28;20466;-71
2023/02/10 08:26:34;;;;;;;35.13;18.60;;;;;;;;;;4987579;28;20037;-72
2023/02/10 08:28:59;;;;;;;34.88;19.13;;;;;;;;;;4987815;28;20101;-70
2023/02/10 08:31:24;;;;;;;36.13;19.25;;;;;;;;;;4987154;28;20121;-77
2023/02/10 08:33:50;;;;;;;38.70;20.17;;;;;;;;;;4986313;28;20030;-77
2023/02/10 08:36:16;;;;;;;35.03;18.38;;;;;;;;;;4986019;28;20315;-74
2023/02/10 08:38:41;;;;;;;37.45;18.98;;;;;;;;;;4988173;28;20089;-77
2023/02/10 08:41:07;;;;;;;37.80;18.35;;;;;;;;;;4983984;28;20030;-73
2023/02/10 08:43:32;;;;;;;39.15;19.92;;;;;;;;;;4983537;28;20152;-75
2023/02/10 08:45:58;;;;;;;44.42;21.80;;;;;;;;;;4988381;28;20034;-76
2023/02/10 08:48:24;;;;;;;37.67;20.17;;;;;;;;;;4985224;28;20121;-75
2023/02/10 08:50:49;;;;;;;32.45;18.67;;;;;;;;;;4985079;28;20517;-73
2023/02/10 08:53:15;;;;;;;36.75;18.30;;;;;;;;;;4994208;28;20026;-73
2023/02/10 08:55:40;;;;;;;38.78;20.05;;;;;;;;;;4988552;28;20101;-74
2023/02/10 08:58:05;;;;;;;36.40;20.15;;;;;;;;;;4987534;28;20034;-73
2023/02/10 09:00:30;;;;;;;36.95;18.42;;;;;;;;;;4984698;28;20045;-72
2023/02/10 09:02:56;;;;;;;36.78;18.10;;;;;;;;;;4987424;28;20014;-72
2023/02/10 09:05:21;;;;;;;37.28;19.17;;;;;;;;;;4985268;28;20030;-72
2023/02/10 09:07:47;;;;;;;33.67;17.40;;;;;;;;;;4988621;28;20112;-71
2023/02/10 09:10:12;;;;;;;36.13;18.95;;;;;;;;;;4984763;28;20050;-69
2023/02/10 09:12:38;;;;;;;33.78;18.75;;;;;;;;;;4986557;28;20509;-71
2023/02/10 09:15:03;;;;;;;32.47;18.88;;;;;;;;;;4990397;28;20056;-70
2023/02/10 09:17:28;;;;;;;34.38;17.92;;;;;;;;;;4992397;28;20022;-70
2023/02/10 09:19:54;;;;;;;31.00;16.45;;;;;;;;;;4990386;28;20030;-72
2023/02/10 09:22:19;;;;;;;28.87;17.50;;;;;;;;;;4991433;28;20018;-70
2023/02/10 09:24:47;;;;;;;34.67;18.52;;;;;;;;;;4995457;28;20310;-76
2023/02/10 09:27:12;;;;;;;38.13;17.27;;;;;;;;;;4996268;28;20378;-79
2023/02/10 09:29:37;;;;;;;34.00;17.70;;;;;;;;;;4990874;28;20026;-74
2023/02/10 09:32:03;;;;;;;35.15;18.10;;;;;;;;;;4990997;28;20014;-75
2023/02/10 09:34:29;;;;;;;33.92;17.23;;;;;;;;;;4989351;28;20026;-75
2023/02/10 09:36:57;;;;;;;32.17;17.58;;;;;;;;;;4988518;28;20034;-75
2023/02/10 09:39:25;;;;;;;30.25;17.70;;;;;;;;;;4986465;28;20042;-73
2023/02/10 09:42:13;;;;;;;30.13;17.20;;;;;;;;;;4990553;28;20022;-75
2023/02/10 09:44:41;;;;;;;34.10;18.80;;;;;;;;;;4955823;28;20038;-75
2023/02/10 09:47:15;;;;;;;32.03;18.00;;;;;;;;;;4988268;28;20061;-72
2023/02/10 09:49:56;;;;;;;32.58;17.73;;;;;;;;;;4986629;28;20481;-75
2023/02/10 09:52:24;;;;;;;39.42;18.83;;;;;;;;;;4990095;28;20026;-74
2023/02/10 09:54:49;;;;;;;34.67;18.48;;;;;;;;;;4990068;28;20021;-72
2023/02/10 09:57:18;;;;;;;30.33;17.48;;;;;;;;;;4997888;28;20030;-73
2023/02/10 09:59:44;;;;;;;32.67;19.45;;;;;;;;;;4988305;28;20045;-72
2023/02/10 10:02:30;;;;;;;29.90;16.90;;;;;;;;;;4989023;28;20116;-84
2023/02/10 10:04:56;;;;;;;32.53;17.98;;;;;;;;;;4987200;28;20184;-79
2023/02/10 10:07:24;;;;;;;32.65;18.38;;;;;;;;;;4988316;28;20632;-81
2023/02/10 10:10:18;;;;;;;34.25;18.63;;;;;;;;;;4988330;28;20022;-75
2023/02/10 10:12:43;;;;;;;32.50;17.48;;;;;;;;;;4974742;28;20413;-77
2023/02/10 10:15:18;;;;;;;31.20;17.77;;;;;;;;;;4989913;28;20025;-75
2023/02/10 10:17:49;;;;;;;28.27;17.23;;;;;;;;;;4989511;28;20033;-75
2023/02/10 10:20:18;;;;;;;30.95;18.20;;;;;;;;;;4987314;28;20038;-74
2023/02/10 10:22:43;;;;;;;27.98;16.15;;;;;;;;;;4991387;28;20076;-72
2023/02/10 10:25:21;;;;;;;31.08;17.75;;;;;;;;;;4989034;28;20117;-71
2023/02/10 10:28:05;;;;;;;35.35;19.10;;;;;;;;;;4989005;28;20105;-72
2023/02/10 10:30:45;;;;;;;33.08;18.52;;;;;;;;;;4994076;28;20026;-72
2023/02/10 10:33:24;;;;;;;31.80;17.35;;;;;;;;;;4988491;28;20041;-73
2023/02/10 10:35:49;;;;;;;35.58;21.40;;;;;;;;;;4985290;28;20035;-70
2023/02/10 10:38:21;;;;;;;29.80;19.38;;;;;;;;;;4983919;28;20485;-71
2023/02/10 10:40:47;;;;;;;36.72;18.92;;;;;;;;;;4988627;28;20251;-72
2023/02/10 10:43:17;;;;;;;31.40;17.10;;;;;;;;;;4990257;28;20025;-73
2023/02/10 10:45:44;;;;;;;34.33;20.50;;;;;;;;;;4985623;28;20026;-73
2023/02/10 10:48:15;;;;;;;33.28;19.00;;;;;;;;;;4985932;28;20021;-73
2023/02/10 10:50:41;;;;;;;33.92;19.33;;;;;;;;;;4985761;28;20030;-77
2023/02/10 10:53:14;;;;;;;29.38;18.17;;;;;;;;;;4986761;28;20111;-73
2023/02/10 10:55:41;;;;;;;32.63;19.67;;;;;;;;;;4988155;28;20128;-72
2023/02/10 10:58:12;;;;;;;32.83;17.42;;;;;;;;;;4981851;28;20095;-80
2023/02/10 11:00:37;;;;;;;30.88;17.58;;;;;;;;;;4993807;28;20330;-70
2023/02/10 11:03:03;;;;;;;28.93;17.93;;;;;;;;;;4993805;28;20041;-72
2023/02/10 11:05:33;;;;;;;27.10;16.50;;;;;;;;;;4989438;28;20289;-71
2023/02/10 11:07:59;;;;;;;29.52;16.98;;;;;;;;;;4983643;28;20018;-71
2023/02/10 11:10:43;;;;;;;28.23;16.40;;;;;;;;;;4983410;28;20068;-68
2023/02/10 11:13:16;;;;;;;30.60;17.50;;;;;;;;;;4984044;28;20059;-69
2023/02/10 11:15:42;;;;;;;27.30;16.75;;;;;;;;;;4981471;28;20496;-72
2023/02/10 11:18:36;;;;;;;30.73;16.98;;;;;;;;;;4979025;28;20022;-69
2023/02/10 11:21:04;;;;;;;29.77;18.88;;;;;;;;;;4968570;28;20108;-69
2023/02/10 11:23:29;;;;;;;28.63;16.98;;;;;;;;;;4979796;28;20022;-69
2023/02/10 11:26:02;;;;;;;27.77;16.83;;;;;;;;;;4977909;28;20021;-70
2023/02/10 11:28:28;;;;;;;29.65;16.60;;;;;;;;;;4978298;28;20469;-69
2023/02/10 11:31:05;;;;;;;31.17;17.08;;;;;;;;;;4976126;28;20023;-71
2023/02/10 11:33:32;;;;;;;29.17;19.48;;;;;;;;;;4982697;28;20352;-70
2023/02/10 11:36:03;;;;;;;31.08;19.27;;;;;;;;;;4974386;28;20070;-75
2023/02/10 11:38:28;;;;;;;29.45;19.40;;;;;;;;;;4981865;28;20454;-71
2023/02/10 11:40:53;;;;;;;33.15;21.48;;;;;;;;;;4981108;28;20045;-70
2023/02/10 11:43:20;;;;;;;33.67;20.97;;;;;;;;;;4977842;28;20023;-72
2023/02/10 11:45:59;;;;;;;36.72;20.90;;;;;;;;;;4981688;28;20264;-71
2023/02/10 11:48:25;;;;;;;35.10;20.20;;;;;;;;;;4979693;28;20027;-73
2023/02/10 11:51:12;;;;;;;33.85;20.23;;;;;;;;;;4982863;28;20101;-71
2023/02/10 11:53:39;;;;;;;30.85;19.73;;;;;;;;;;4986309;28;20084;-71
2023/02/10 11:56:13;;;;;;;32.50;18.98;;;;;;;;;;5000859;28;20019;-71
2023/02/10 12:01:40;;;;;;;40.65;21.77;;;;;;;;;;4987132;28;20038;-70
2023/02/10 12:04:09;;;;;;;31.70;19.08;;;;;;;;;;4986885;28;20313;-71
2023/02/10 12:06:57;;;;;;;32.65;19.48;;;;;;;;;;4986585;28;20119;-70
2023/02/10 12:09:28;;;;;;;35.33;20.38;;;;;;;;;;4974754;28;20509;-69
2023/02/10 12:11:53;;;;;;;33.03;19.13;;;;;;;;;;4986184;28;20014;-73
2023/02/10 12:14:37;;;;;;;31.40;20.30;;;;;;;;;;4986735;28;20028;-76
2023/02/10 12:17:06;;;;;;;34.15;19.70;;;;;;;;;;4985029;28;20368;-78
2023/02/10 12:19:50;;;;;;;27.92;17.85;;;;;;;;;;4987305;28;20066;-79
2023/02/10 12:22:15;;;;;;;30.08;18.35;;;;;;;;;;4985141;28;20037;-81
2023/02/10 12:24:49;;;;;;;29.90;19.20;;;;;;;;;;4985509;28;20381;-77
2023/02/10 12:27:19;;;;;;;33.28;20.98;;;;;;;;;;4985044;28;20273;-79
2023/02/10 12:29:50;;;;;;;29.88;19.23;;;;;;;;;;4989169;28;20026;-73
2023/02/10 12:32:48;;;;;;;29.27;18.42;;;;;;;;;;4985361;28;20019;-71
2023/02/10 12:35:19;;;;;;;29.13;17.60;;;;;;;;;;4962985;28;20037;-72
2023/02/10 12:37:53;;;;;;;31.13;18.17;;;;;;;;;;4992981;28;20037;-71
2023/02/10 12:40:27;;;;;;;28.17;17.05;;;;;;;;;;4985969;28;20045;-73
2023/02/10 12:43:15;;;;;;;28.63;18.05;;;;;;;;;;4986930;28;20141;-74
2023/02/10 12:45:52;;;;;;;33.58;19.42;;;;;;;;;;4989513;28;20089;-72
2023/02/10 12:48:20;;;;;;;36.95;18.60;;;;;;;;;;4984913;28;20026;-70
2023/02/10 12:50:53;;;;;;;28.80;16.90;;;;;;;;;;4989559;28;20076;-70
2023/02/10 12:53:21;;;;;;;29.13;17.30;;;;;;;;;;4987198;28;20377;-69
2023/02/10 12:56:01;;;;;;;32.50;18.65;;;;;;;;;;4990208;28;20113;-71
2023/02/10 12:58:29;;;;;;;29.63;16.52;;;;;;;;;;4982088;28;20031;-70
2023/02/10 13:01:04;;;;;;;28.80;19.02;;;;;;;;;;4989852;28;20030;-72
2023/02/10 13:03:34;;;;;;;28.67;18.08;;;;;;;;;;4983734;28;20117;-71
2023/02/10 13:06:18;;;;;;;36.30;18.08;;;;;;;;;;4987980;28;20018;-69
2023/02/10 13:08:50;;;;;;;28.15;17.95;;;;;;;;;;4997557;28;20049;-75
2023/02/10 13:11:19;;;;;;;31.85;18.23;;;;;;;;;;4990459;28;20022;-73
2023/02/10 13:13:45;;;;;;;27.52;16.23;;;;;;;;;;4998428;28;20023;-75
2023/02/10 13:16:13;;;;;;;31.63;17.70;;;;;;;;;;4986697;28;20023;-73
2023/02/10 13:18:54;;;;;;;32.75;18.20;;;;;;;;;;4989520;28;20044;-77
2023/02/10 13:21:31;;;;;;;29.05;17.13;;;;;;;;;;4990575;28;20034;-74
2023/02/10 13:24:11;;;;;;;30.98;18.25;;;;;;;;;;4986852;28;20514;-77
2023/02/10 13:26:39;;;;;;;27.80;16.13;;;;;;;;;;4986424;28;20062;-69
2023/02/10 13:29:12;;;;;;;26.15;16.48;;;;;;;;;;4990615;28;20025;-69
2023/02/10 13:31:37;;;;;;;27.60;16.23;;;;;;;;;;4990703;28;20045;-70
2023/02/10 13:34:04;;;;;;;35.65;17.75;;;;;;;;;;4990939;28;20018;-72
2023/02/10 13:36:32;;;;;;;24.88;16.25;;;;;;;;;;4988437;28;20088;-69
2023/02/10 13:38:59;;;;;;;27.52;17.38;;;;;;;;;;4990041;28;20027;-69
2023/02/10 13:44:27;;;;;;;24.33;15.75;;;;;;;;;;4994677;28;20026;-70
2023/02/10 13:46:54;;;;;;;31.00;17.65;;;;;;;;;;4990462;28;20038;-75
2023/02/10 13:49:20;;;;;;;28.88;16.70;;;;;;;;;;4988586;28;20081;-75
2023/02/10 13:51:46;;;;;;;28.35;16.63;;;;;;;;;;4987867;28;20449;-75
2023/02/10 13:54:27;;;;;;;28.60;18.10;;;;;;;;;;4989966;28;20019;-75
2023/02/10 13:56:54;;;;;;;23.88;14.43;;;;;;;;;;4983160;28;20125;-79
2023/02/10 13:59:19;;;;;;;29.70;17.73;;;;;;;;;;4990482;28;20026;-75
2023/02/10 14:01:48;;;;;;;26.03;15.73;;;;;;;;;;4991264;28;20116;-70
2023/02/10 14:04:17;;;;;;;27.73;16.15;;;;;;;;;;4986965;28;20023;-76
2023/02/10 14:06:42;;;;;;;26.75;15.27;;;;;;;;;;4990192;28;20032;-75
2023/02/10 14:09:19;;;;;;;23.23;14.20;;;;;;;;;;4989735;28;20018;-78
2023/02/10 14:11:46;;;;;;;24.98;14.27;;;;;;;;;;4991940;28;20026;-77
2023/02/10 14:14:17;;;;;;;24.83;14.02;;;;;;;;;;4995645;28;20022;-73
2023/02/10 14:16:44;;;;;;;27.20;14.52;;;;;;;;;;4991083;28;20489;-77
2023/02/10 14:19:39;;;;;;;28.63;15.43;;;;;;;;;;4990094;28;20033;-71
2023/02/10 14:22:05;;;;;;;22.35;14.93;;;;;;;;;;4976478;28;20073;-69
2023/02/10 14:24:35;;;;;;;25.13;14.65;;;;;;;;;;4986246;28;20075;-70
2023/02/10 14:27:01;;;;;;;24.35;14.82;;;;;;;;;;4988057;28;20489;-70
2023/02/10 14:29:28;;;;;;;25.23;14.35;;;;;;;;;;4990290;28;20026;-69
2023/02/10 14:31:57;;;;;;;28.88;15.13;;;;;;;;;;4987417;28;20030;-70
2023/02/10 14:34:27;;;;;;;24.10;14.60;;;;;;;;;;4990588;28;20527;-71
2023/02/10 14:36:54;;;;;;;24.60;14.60;;;;;;;;;;4988482;28;20093;-70